Time;durP1;ratioP1;P1;durP2;ratioP2;P2;SDS_P1;SDS_P2;PMS_P1;PMS_P2;Temp;Humidity;BMP_temperature;BMP_pressure;BME280_temperature;BME280_humidity;BME280_pressure;Samples;Min_cycle;Max_cycle;Signal;HPM_P1;HPM_P2
2022/12/15 00:39:39;;;;;;;23.17;12.48;;;-4.10;99.90;;;;;;5094961;28;20044;-66
2022/12/15 00:42:08;;;;;;;25.10;12.77;;;-4.10;99.90;;;;;;5094215;28;20053;-65
2022/12/15 00:44:36;;;;;;;20.63;12.02;;;-4.10;99.90;;;;;;5094987;28;20035;-65
2022/12/15 00:47:02;;;;;;;23.40;12.57;;;-4.10;99.90;;;;;;5112085;27;20103;-65
2022/12/15 01:22:30;;;;;;;25.08;12.55;;;-4.10;99.90;;;;;;5093455;27;20036;-65
2022/12/15 01:24:56;;;;;;;17.92;11.35;;;-4.00;99.90;;;;;;5090012;27;20162;-65
2022/12/15 01:27:21;;;;;;;21.63;12.27;;;-4.10;99.90;;;;;;5094259;28;20500;-65
2022/12/15 01:29:47;;;;;;;18.63;11.65;;;-4.10;99.90;;;;;;5093664;28;20112;-65
2022/12/15 01:32:13;;;;;;;21.30;12.82;;;-4.10;99.90;;;;;;5084798;28;20066;-65
2022/12/15 01:34:38;;;;;;;20.92;12.60;;;-4.10;99.90;;;;;;5102701;27;20650;-66
2022/12/15 01:37:04;;;;;;;20.80;12.68;;;-4.10;99.90;;;;;;5089672;27;20062;-65
2022/12/15 01:40:43;;;;;;;18.15;10.88;;;-4.10;99.90;;;;;;5085541;27;20075;-66
2022/12/15 01:42:15;;;;;;;21.15;11.82;;;-4.10;99.90;;;;;;5120267;27;20135;-65
2022/12/15 01:44:43;;;;;;;20.17;11.43;;;-4.10;99.90;;;;;;5124722;27;20106;-66
2022/12/15 01:47:12;;;;;;;22.45;11.95;;;-4.10;99.90;;;;;;5126342;27;20063;-65
2022/12/15 01:49:38;;;;;;;19.52;11.90;;;-4.10;99.90;;;;;;5089568;28;20531;-65
2022/12/15 01:52:05;;;;;;;17.92;11.00;;;-4.20;99.90;;;;;;5089699;27;20100;-65
2022/12/15 01:54:36;;;;;;;22.90;12.13;;;-4.20;99.90;;;;;;5090278;27;20051;-65
2022/12/15 01:57:12;;;;;;;19.98;11.70;;;-4.20;99.90;;;;;;5093371;28;20070;-66
2022/12/15 01:59:42;;;;;;;21.83;12.32;;;-4.30;99.90;;;;;;5125671;27;20039;-65
2022/12/15 02:02:09;;;;;;;18.48;11.38;;;-4.20;99.90;;;;;;5090587;27;20043;-66
2022/12/15 02:04:36;;;;;;;18.95;11.60;;;-4.20;99.90;;;;;;5090676;27;20031;-66
2022/12/15 02:07:02;;;;;;;17.85;10.93;;;-4.20;99.90;;;;;;5074656;28;20150;-66
2022/12/15 02:09:29;;;;;;;20.10;12.77;;;-4.10;99.90;;;;;;5088442;27;20071;-66
2022/12/15 02:12:12;;;;;;;20.88;11.88;;;-4.10;99.90;;;;;;5125547;27;20048;-65
2022/12/15 02:14:44;;;;;;;21.17;12.13;;;-4.10;99.90;;;;;;5085952;27;20051;-65
2022/12/15 02:17:37;;;;;;;20.90;12.17;;;-4.00;99.90;;;;;;5092559;28;20524;-65
2022/12/15 02:20:31;;;;;;;20.02;11.75;;;-4.00;99.90;;;;;;5075787;28;20047;-65
2022/12/15 02:23:34;;;;;;;20.45;10.88;;;-4.00;99.90;;;;;;5125998;27;20121;-66
2022/12/15 02:26:28;;;;;;;19.10;10.90;;;-3.90;99.90;;;;;;5125743;27;20036;-65
2022/12/15 02:29:22;;;;;;;19.27;11.40;;;-4.00;99.90;;;;;;5093045;28;20115;-66
2022/12/15 02:32:19;;;;;;;19.75;11.18;;;-4.00;99.90;;;;;;5090898;28;20056;-65
2022/12/15 02:35:25;;;;;;;21.77;11.40;;;-4.10;99.90;;;;;;5084740;28;20059;-66
2022/12/15 02:37:51;;;;;;;21.88;11.57;;;-4.10;99.90;;;;;;5050360;28;20498;-66
2022/12/15 02:40:16;;;;;;;20.85;11.98;;;-4.10;99.90;;;;;;5049453;28;20060;-65
2022/12/15 02:42:46;;;;;;;17.40;11.73;;;-4.10;99.90;;;;;;5051204;28;20102;-66
2022/12/15 02:45:15;;;;;;;18.58;11.65;;;-4.10;99.90;;;;;;5048217;28;20052;-65
2022/12/15 02:48:10;;;;;;;20.40;11.88;;;-4.10;99.90;;;;;;5050487;28;20093;-66
2022/12/15 02:50:48;;;;;;;19.10;11.13;;;-4.00;99.90;;;;;;5048558;28;20185;-66
2022/12/15 02:53:19;;;;;;;18.40;11.57;;;-4.10;99.90;;;;;;5051229;28;20093;-65
2022/12/15 02:55:54;;;;;;;19.58;11.13;;;-4.10;99.90;;;;;;5051581;28;20407;-65
2022/12/15 02:58:55;;;;;;;20.60;11.98;;;-4.10;99.90;;;;;;5050645;28;20135;-65
2022/12/15 03:01:33;;;;;;;20.00;11.07;;;-4.10;99.90;;;;;;5027816;28;20049;-65
2022/12/15 03:04:01;;;;;;;20.25;11.85;;;-4.00;99.90;;;;;;5029967;28;20059;-66
2022/12/15 03:06:27;;;;;;;18.42;11.07;;;-4.00;99.90;;;;;;5042799;28;20140;-65
2022/12/15 03:08:53;;;;;;;18.00;10.93;;;-4.00;99.90;;;;;;5027391;28;20041;-66
2022/12/15 03:11:19;;;;;;;20.50;11.75;;;-4.00;99.90;;;;;;5031715;28;20056;-66
2022/12/15 03:13:44;;;;;;;19.20;11.15;;;-4.00;99.90;;;;;;5022746;28;20057;-65
2022/12/15 03:16:11;;;;;;;19.05;10.68;;;-3.90;99.90;;;;;;5055934;28;20121;-65
2022/12/15 03:18:36;;;;;;;16.80;10.35;;;-3.90;99.90;;;;;;5025898;28;20119;-65
2022/12/15 03:21:02;;;;;;;17.42;10.25;;;-3.90;99.90;;;;;;5044608;28;20041;-65
2022/12/15 03:23:28;;;;;;;20.27;10.57;;;-3.90;99.90;;;;;;5048723;28;20476;-65
2022/12/15 03:25:54;;;;;;;20.45;11.20;;;-3.90;99.90;;;;;;5016565;28;20480;-65
2022/12/15 03:28:20;;;;;;;19.58;10.40;;;-3.90;99.90;;;;;;5050984;28;20040;-65
2022/12/15 03:30:47;;;;;;;19.83;10.90;;;-4.00;99.90;;;;;;5051403;28;20063;-66
2022/12/15 03:33:13;;;;;;;15.60;10.32;;;-4.00;99.90;;;;;;5049655;28;20488;-65
2022/12/15 03:35:39;;;;;;;17.15;10.10;;;-3.90;99.90;;;;;;5020447;28;20052;-66
2022/12/15 03:38:04;;;;;;;16.08;9.70;;;-3.90;99.90;;;;;;5054199;28;20051;-65
2022/12/15 03:40:30;;;;;;;15.77;10.00;;;-4.00;99.90;;;;;;5128889;27;20043;-65
2022/12/15 03:42:57;;;;;;;15.57;9.88;;;-4.00;99.90;;;;;;5124510;27;20451;-66
2022/12/15 03:45:25;;;;;;;18.80;10.73;;;-4.00;99.90;;;;;;5111233;28;20048;-65
2022/12/15 03:47:52;;;;;;;16.80;10.05;;;-4.00;99.90;;;;;;5095383;27;20477;-65
2022/12/15 03:50:20;;;;;;;16.73;10.25;;;-4.00;99.90;;;;;;5088667;28;20040;-66
2022/12/15 03:52:53;;;;;;;19.60;11.23;;;-4.00;99.90;;;;;;5088367;27;20047;-65
2022/12/15 03:55:20;;;;;;;18.33;10.95;;;-4.00;99.90;;;;;;5090507;27;20043;-65
2022/12/15 03:57:46;;;;;;;16.98;10.45;;;-3.90;99.90;;;;;;5065655;28;20044;-65
2022/12/15 04:00:14;;;;;;;19.83;11.50;;;-3.90;99.90;;;;;;5119833;27;20051;-66
2022/12/15 04:02:43;;;;;;;16.90;10.57;;;-3.90;99.90;;;;;;5107838;27;20142;-66
2022/12/15 04:05:17;;;;;;;20.10;10.73;;;-4.00;99.90;;;;;;5087144;28;21646;-65
2022/12/15 04:07:42;;;;;;;15.88;10.48;;;-4.00;99.90;;;;;;5124434;27;20095;-66
2022/12/15 04:10:09;;;;;;;18.13;11.15;;;-4.00;99.90;;;;;;5119480;27;20145;-65
2022/12/15 04:12:34;;;;;;;19.85;11.60;;;-3.90;99.90;;;;;;5089726;27;20047;-66
2022/12/15 04:15:00;;;;;;;20.35;10.68;;;-3.90;99.90;;;;;;5121946;27;20449;-65
2022/12/15 04:17:25;;;;;;;23.10;10.85;;;-3.90;99.90;;;;;;5124395;27;20067;-65
2022/12/15 04:20:09;;;;;;;17.45;10.25;;;-3.90;99.90;;;;;;5087718;28;20044;-65
2022/12/15 04:22:44;;;;;;;16.95;10.05;;;-3.90;99.90;;;;;;5089878;28;20077;-66
2022/12/15 05:33:56;;;;;;;17.25;9.65;;;-3.90;99.90;;;;;;5118954;27;20406;-66
2022/12/15 05:36:22;;;;;;;15.70;9.63;;;-3.80;99.90;;;;;;5103482;27;20075;-66
2022/12/15 05:38:49;;;;;;;15.73;9.68;;;-3.80;99.90;;;;;;5090227;28;20039;-67
2022/12/15 05:41:19;;;;;;;20.77;10.07;;;-3.80;99.90;;;;;;5093479;28;20055;-67
2022/12/15 05:43:45;;;;;;;19.45;10.25;;;-3.80;99.90;;;;;;5084546;27;20070;-66
2022/12/15 05:46:12;;;;;;;19.35;10.35;;;-3.80;99.90;;;;;;5082850;28;20043;-67
2022/12/15 05:48:37;;;;;;;15.00;10.07;;;-3.90;99.90;;;;;;5090197;27;20424;-66
2022/12/15 05:51:04;;;;;;;15.27;9.48;;;-3.90;99.90;;;;;;5088000;28;20046;-66
2022/12/15 05:53:30;;;;;;;18.17;10.55;;;-3.90;99.90;;;;;;5092406;27;20126;-66
2022/12/15 05:56:03;;;;;;;18.15;9.68;;;-3.90;99.90;;;;;;5094615;28;20131;-66
2022/12/15 05:58:29;;;;;;;18.70;9.95;;;-3.90;99.90;;;;;;5124905;27;20394;-68
2022/12/15 06:01:12;;;;;;;17.45;10.57;;;-3.90;99.90;;;;;;5087188;28;20051;-67
2022/12/15 06:03:38;;;;;;;21.90;12.13;;;-3.80;99.90;;;;;;5104101;27;20051;-67
2022/12/15 06:06:05;;;;;;;20.35;12.00;;;-3.80;99.90;;;;;;5093160;28;20043;-68
2022/12/15 06:08:33;;;;;;;21.15;12.05;;;-3.80;99.90;;;;;;5125263;27;20039;-66
2022/12/15 06:10:59;;;;;;;19.88;10.70;;;-3.90;99.90;;;;;;5091935;28;20122;-67
2022/12/15 06:13:26;;;;;;;22.25;11.10;;;-4.00;99.90;;;;;;5091037;28;20477;-68
2022/12/15 06:15:56;;;;;;;21.50;10.60;;;-4.10;99.90;;;;;;5124122;27;20062;-68
2022/12/15 06:18:23;;;;;;;17.48;10.10;;;-4.10;99.90;;;;;;5093761;28;20050;-68
2022/12/15 06:20:48;;;;;;;22.10;14.02;;;-4.10;99.90;;;;;;5091444;28;20075;-68
2022/12/15 06:23:14;;;;;;;20.80;11.65;;;-4.10;99.90;;;;;;5075281;28;20503;-68
2022/12/15 06:25:40;;;;;;;18.13;12.48;;;-4.00;99.90;;;;;;5092410;28;20035;-68
2022/12/15 06:28:05;;;;;;;21.20;11.68;;;-4.00;99.90;;;;;;5091039;28;20058;-68
2022/12/15 06:30:31;;;;;;;19.40;12.63;;;-4.00;99.90;;;;;;5126621;27;20042;-68
2022/12/15 06:32:57;;;;;;;19.17;13.57;;;-3.90;99.90;;;;;;5089740;28;20039;-68
2022/12/15 06:35:22;;;;;;;16.88;11.32;;;-3.90;99.90;;;;;;5093243;28;20079;-67
2022/12/15 06:37:48;;;;;;;17.80;11.05;;;-3.90;99.90;;;;;;5109418;28;20379;-68
2022/12/15 06:40:13;;;;;;;16.40;10.50;;;-3.90;99.90;;;;;;5092228;28;20100;-67
2022/12/15 06:42:39;;;;;;;19.95;12.48;;;-3.80;99.90;;;;;;5110843;28;20036;-68
2022/12/15 06:45:07;;;;;;;18.25;11.27;;;-3.90;99.90;;;;;;5092313;28;20027;-68
2022/12/15 06:47:32;;;;;;;16.13;10.63;;;-3.90;99.90;;;;;;5093121;28;20120;-68
2022/12/15 06:49:58;;;;;;;15.00;9.77;;;-3.90;99.90;;;;;;5091642;28;20051;-68
2022/12/15 06:52:23;;;;;;;15.55;10.50;;;-3.90;99.90;;;;;;5092005;28;20040;-68
2022/12/15 06:54:49;;;;;;;19.98;10.18;;;-3.90;99.90;;;;;;5092541;27;20118;-68
2022/12/15 06:57:14;;;;;;;15.73;9.13;;;-3.90;99.90;;;;;;5110272;28;20038;-68
2022/12/15 06:59:40;;;;;;;18.13;10.73;;;-3.80;99.90;;;;;;5088793;28;20028;-68
2022/12/15 07:02:16;;;;;;;15.13;9.50;;;-3.80;99.90;;;;;;5091972;28;20406;-68
2022/12/15 07:04:42;;;;;;;18.70;9.85;;;-3.80;99.90;;;;;;5126897;27;20046;-68
2022/12/15 07:07:11;;;;;;;17.73;9.98;;;-3.80;99.90;;;;;;5092185;28;20497;-68
2022/12/15 07:09:36;;;;;;;16.25;10.23;;;-3.90;99.90;;;;;;5075760;28;20102;-68
2022/12/15 07:12:02;;;;;;;15.25;9.57;;;-3.90;99.90;;;;;;5092820;28;20048;-68
2022/12/15 07:14:28;;;;;;;20.27;10.30;;;-3.80;99.90;;;;;;5126618;28;20055;-68
2022/12/15 07:16:53;;;;;;;17.13;9.65;;;-3.70;99.90;;;;;;5093049;28;20035;-68
2022/12/15 07:19:19;;;;;;;17.80;10.32;;;-3.70;99.90;;;;;;5092483;28;20134;-68
2022/12/15 07:21:45;;;;;;;15.07;9.60;;;-3.60;99.90;;;;;;5092453;28;20040;-68
2022/12/15 07:24:11;;;;;;;24.77;11.80;;;-3.70;99.90;;;;;;5092428;28;20043;-68
2022/12/15 07:26:37;;;;;;;17.15;10.38;;;-3.70;99.90;;;;;;5126591;28;20036;-68
2022/12/15 07:29:03;;;;;;;16.45;10.27;;;-3.70;99.90;;;;;;5092551;28;20032;-67
2022/12/15 07:31:30;;;;;;;15.65;9.85;;;-3.70;99.90;;;;;;5092644;28;20044;-65
2022/12/15 07:33:57;;;;;;;18.95;9.80;;;-3.60;99.90;;;;;;5088846;28;20044;-65
2022/12/15 07:36:22;;;;;;;17.05;9.75;;;-3.60;99.90;;;;;;5125343;28;20448;-68
2022/12/15 07:38:48;;;;;;;15.13;9.35;;;-3.60;99.90;;;;;;5125837;28;20035;-68
2022/12/15 07:41:14;;;;;;;21.02;10.25;;;-3.60;99.90;;;;;;5126309;28;20088;-68
2022/12/15 07:43:40;;;;;;;14.60;9.18;;;-3.60;99.90;;;;;;5092421;28;20042;-68
2022/12/15 07:46:06;;;;;;;14.05;9.38;;;-3.50;99.90;;;;;;5126609;28;20036;-68
2022/12/15 07:48:32;;;;;;;17.45;9.50;;;-3.40;99.90;;;;;;5126483;28;20042;-68
2022/12/15 07:50:58;;;;;;;18.25;9.48;;;-3.40;99.90;;;;;;5126607;28;20044;-67
2022/12/15 07:53:26;;;;;;;18.35;9.90;;;-3.20;99.90;;;;;;5092408;28;20039;-68
2022/12/15 07:55:59;;;;;;;16.50;9.65;;;-3.20;99.90;;;;;;5075788;28;20082;-68
2022/12/15 07:58:28;;;;;;;15.90;9.60;;;-3.20;99.90;;;;;;5092119;28;20043;-69
2022/12/15 08:00:58;;;;;;;15.40;9.82;;;-3.20;99.90;;;;;;5092195;28;20075;-68
2022/12/15 08:03:23;;;;;;;15.55;9.63;;;-3.10;99.90;;;;;;5126274;28;20040;-68
2022/12/15 08:05:49;;;;;;;14.40;9.38;;;-3.10;99.90;;;;;;5110396;28;20032;-67
2022/12/15 08:08:16;;;;;;;16.45;9.80;;;-3.00;99.90;;;;;;5092085;28;20039;-68
2022/12/15 08:10:41;;;;;;;14.65;9.70;;;-3.00;99.90;;;;;;5126211;27;20053;-67
2022/12/15 08:13:07;;;;;;;19.75;10.73;;;-2.90;99.90;;;;;;5078554;28;20056;-67
2022/12/15 08:15:37;;;;;;;22.52;11.05;;;-3.00;99.90;;;;;;5095764;28;20091;-68
2022/12/15 08:18:03;;;;;;;17.90;9.57;;;-2.90;99.90;;;;;;5079147;28;20039;-68
2022/12/15 08:20:32;;;;;;;15.77;9.40;;;-2.80;99.90;;;;;;5095528;28;20119;-68
2022/12/15 08:22:58;;;;;;;14.25;9.23;;;-2.80;99.90;;;;;;5129761;27;20067;-68
2022/12/15 08:25:24;;;;;;;15.15;9.25;;;-2.70;99.90;;;;;;5095371;28;20036;-68
2022/12/15 08:27:51;;;;;;;14.88;9.35;;;-2.80;99.90;;;;;;5095370;28;20076;-68
2022/12/15 08:30:17;;;;;;;14.27;9.48;;;-2.80;99.90;;;;;;5129592;27;20044;-68
2022/12/15 08:32:44;;;;;;;17.60;9.88;;;-2.70;99.90;;;;;;5129877;27;20044;-68
2022/12/15 08:35:10;;;;;;;14.38;8.80;;;-2.80;99.90;;;;;;5095733;28;20048;-68
2022/12/15 08:37:35;;;;;;;18.98;9.02;;;-2.80;99.90;;;;;;5129788;27;20442;-68
2022/12/15 08:40:02;;;;;;;17.77;9.18;;;-2.80;99.90;;;;;;5095555;28;20036;-68
2022/12/15 08:42:32;;;;;;;18.83;9.35;;;-2.80;99.90;;;;;;5129307;27;20092;-67
2022/12/15 08:44:58;;;;;;;14.50;9.50;;;-2.70;99.90;;;;;;5095241;28;20043;-67
2022/12/15 08:47:23;;;;;;;18.55;10.05;;;-2.70;99.90;;;;;;5094970;28;20035;-68
2022/12/15 08:49:49;;;;;;;19.30;12.50;;;-2.60;99.90;;;;;;5095351;28;20040;-68
2022/12/15 08:52:15;;;;;;;21.50;12.68;;;-2.50;99.90;;;;;;5095064;28;20085;-67
2022/12/15 08:54:40;;;;;;;19.40;12.32;;;-2.50;99.90;;;;;;5094905;28;20045;-68
2022/12/15 08:57:06;;;;;;;16.65;10.55;;;-2.40;99.90;;;;;;5095175;28;20044;-68
2022/12/15 08:59:32;;;;;;;19.65;11.13;;;-2.30;99.90;;;;;;5094739;28;20048;-68
2022/12/15 09:01:58;;;;;;;20.58;10.20;;;-2.20;99.90;;;;;;5077901;28;20534;-68
2022/12/15 09:04:23;;;;;;;18.88;9.57;;;-2.20;99.90;;;;;;5094762;28;20035;-67
2022/12/15 09:06:49;;;;;;;19.10;9.60;;;-2.10;99.90;;;;;;5094568;28;20048;-68
2022/12/15 09:09:14;;;;;;;16.58;10.52;;;-2.00;99.90;;;;;;5113077;28;20036;-68
2022/12/15 09:11:40;;;;;;;15.18;9.38;;;-2.00;99.90;;;;;;5094609;28;20409;-68
2022/12/15 09:14:06;;;;;;;17.40;8.98;;;-1.90;99.90;;;;;;5094595;28;20063;-68
2022/12/15 09:16:32;;;;;;;19.75;9.13;;;-1.90;99.90;;;;;;5111518;28;20076;-67
2022/12/15 09:18:59;;;;;;;16.25;9.00;;;-1.70;99.90;;;;;;5094690;28;20055;-68
2022/12/15 09:21:27;;;;;;;15.60;9.32;;;-1.60;99.90;;;;;;5094512;28;20055;-68
2022/12/15 09:23:59;;;;;;;17.80;10.15;;;-1.40;99.90;;;;;;5122623;27;20046;-68
2022/12/15 09:26:25;;;;;;;14.80;9.32;;;-1.20;99.90;;;;;;5094080;28;20509;-68
2022/12/15 09:28:51;;;;;;;15.32;9.52;;;-1.10;99.90;;;;;;5128276;27;20039;-67
2022/12/15 09:31:21;;;;;;;14.20;9.00;;;-0.90;99.90;;;;;;5112459;28;20394;-65
2022/12/15 09:33:47;;;;;;;12.93;8.00;;;-0.80;99.90;;;;;;5128534;27;20073;-65
2022/12/15 09:36:13;;;;;;;16.33;8.85;;;-0.80;99.90;;;;;;5128584;27;20047;-65
2022/12/15 09:38:40;;;;;;;13.00;8.65;;;-0.80;99.90;;;;;;5094139;28;20040;-65
2022/12/15 09:41:16;;;;;;;15.32;8.98;;;-0.80;99.90;;;;;;5128378;27;20047;-65
2022/12/15 09:44:03;;;;;;;14.43;8.52;;;-0.70;99.90;;;;;;5127984;27;20067;-65
2022/12/15 09:47:07;;;;;;;14.85;8.15;;;-0.70;99.90;;;;;;5093999;28;20035;-65
2022/12/15 09:49:55;;;;;;;14.15;8.25;;;-0.70;99.90;;;;;;5075686;28;20047;-65
2022/12/15 09:52:27;;;;;;;13.10;8.02;;;-0.60;99.90;;;;;;5093963;28;20115;-65
2022/12/15 09:54:54;;;;;;;13.70;8.30;;;-0.50;99.90;;;;;;5093726;28;20084;-65
2022/12/15 09:57:52;;;;;;;13.43;7.95;;;-0.50;99.90;;;;;;5093808;28;20071;-65
2022/12/15 10:00:24;;;;;;;16.08;8.90;;;-0.40;99.90;;;;;;5066410;28;20067;-66
2022/12/15 10:03:03;;;;;;;13.30;8.70;;;-0.30;99.90;;;;;;5093613;28;20031;-66
2022/12/15 10:05:29;;;;;;;13.88;7.60;;;-0.10;99.90;;;;;;5127824;27;20039;-65
2022/12/15 10:07:57;;;;;;;12.40;7.90;;;0.20;99.90;;;;;;5093755;28;20062;-65
2022/12/15 10:10:39;;;;;;;11.38;7.95;;;0.40;99.90;;;;;;5093863;28;20063;-65
2022/12/15 10:13:18;;;;;;;11.88;7.65;;;0.80;99.90;;;;;;5093359;28;20546;-65
2022/12/15 10:15:52;;;;;;;13.80;7.63;;;1.30;99.90;;;;;;5127443;27;20127;-65
2022/12/15 10:18:25;;;;;;;14.27;7.82;;;1.80;99.90;;;;;;5093341;28;20456;-65
2022/12/15 10:20:53;;;;;;;12.52;7.40;;;2.10;99.90;;;;;;5093078;28;20050;-66
2022/12/15 10:23:19;;;;;;;12.82;6.75;;;2.30;99.90;;;;;;5127546;27;20526;-65
2022/12/15 10:25:55;;;;;;;12.25;7.57;;;2.60;99.90;;;;;;5127334;27;20111;-65
2022/12/15 10:28:32;;;;;;;12.00;7.45;;;2.70;99.90;;;;;;5093254;28;20116;-65
2022/12/15 10:31:01;;;;;;;14.48;7.55;;;2.50;99.90;;;;;;5093072;28;20115;-65
2022/12/15 10:33:36;;;;;;;8.73;6.97;;;2.30;99.90;;;;;;5126892;27;20039;-65
2022/12/15 10:36:14;;;;;;;13.23;7.47;;;2.40;99.90;;;;;;5109972;28;20035;-65
2022/12/15 10:38:44;;;;;;;13.48;7.70;;;2.40;99.90;;;;;;5110495;28;20047;-65
2022/12/15 10:41:19;;;;;;;11.00;7.43;;;2.30;99.90;;;;;;5127114;27;20429;-66
2022/12/15 10:43:47;;;;;;;11.85;7.97;;;2.40;99.90;;;;;;5092948;28;20110;-65
2022/12/15 10:46:24;;;;;;;11.68;7.80;;;2.40;99.90;;;;;;5126937;27;20059;-65
2022/12/15 10:48:58;;;;;;;12.10;7.13;;;2.40;99.90;;;;;;5093205;28;20074;-66
2022/12/15 10:51:31;;;;;;;11.93;7.05;;;2.30;99.90;;;;;;5126940;27;20127;-65
2022/12/15 10:54:08;;;;;;;11.98;7.20;;;2.00;99.90;;;;;;5127028;27;20039;-65
2022/12/15 10:56:48;;;;;;;11.23;7.15;;;1.80;99.90;;;;;;5092718;28;20047;-65
2022/12/15 10:59:28;;;;;;;11.13;7.22;;;1.80;99.90;;;;;;5092895;28;20120;-64
2022/12/15 11:01:53;;;;;;;13.18;7.40;;;1.70;99.90;;;;;;5092610;28;20084;-65
2022/12/15 11:04:31;;;;;;;10.13;7.20;;;1.90;99.90;;;;;;5092742;28;20040;-65
2022/12/15 11:07:01;;;;;;;11.85;7.40;;;2.00;99.90;;;;;;5092952;28;20058;-65
2022/12/15 11:09:33;;;;;;;11.27;7.35;;;1.80;99.90;;;;;;5092961;28;20416;-65
2022/12/15 11:14:46;;;;;;;13.55;7.25;;;1.70;99.90;;;;;;5092559;28;20063;-65
2022/12/15 11:17:20;;;;;;;14.95;7.28;;;1.80;99.90;;;;;;5092709;28;20046;-65
2022/12/15 11:19:51;;;;;;;12.75;7.47;;;2.10;99.90;;;;;;5092565;28;20135;-65
2022/12/15 11:22:30;;;;;;;9.45;7.03;;;2.20;99.90;;;;;;5093003;28;20487;-65
2022/12/15 11:25:11;;;;;;;12.20;7.07;;;2.10;99.90;;;;;;5092624;28;20031;-65
2022/12/15 11:27:39;;;;;;;12.65;8.27;;;2.10;99.90;;;;;;5126676;28;20108;-65
2022/12/15 11:30:19;;;;;;;10.80;7.80;;;2.10;99.90;;;;;;5092315;28;20040;-65
2022/12/15 11:32:48;;;;;;;10.85;7.47;;;2.80;99.90;;;;;;5092751;28;20082;-65
2022/12/15 11:35:21;;;;;;;11.85;7.35;;;3.10;99.90;;;;;;5092694;28;20112;-65
2022/12/15 11:38:22;;;;;;;12.98;7.53;;;3.00;99.90;;;;;;5092905;28;20035;-65
2022/12/15 11:40:50;;;;;;;12.32;7.43;;;3.00;99.90;;;;;;5092537;28;20047;-65
2022/12/15 11:43:31;;;;;;;14.98;7.50;;;3.20;99.90;;;;;;5126952;28;20367;-65
2022/12/15 11:46:02;;;;;;;12.70;7.68;;;3.40;99.90;;;;;;5094443;28;20042;-65
2022/12/15 11:48:43;;;;;;;14.63;7.88;;;3.80;99.90;;;;;;5096343;28;20066;-65
2022/12/15 11:51:50;;;;;;;14.02;7.60;;;3.70;99.90;;;;;;5096314;28;20047;-66
2022/12/15 11:54:54;;;;;;;13.35;8.13;;;3.50;99.90;;;;;;5096213;28;20047;-65
2022/12/15 11:57:33;;;;;;;11.70;7.65;;;3.90;99.90;;;;;;5095317;28;20059;-65
2022/12/15 12:00:09;;;;;;;9.23;7.22;;;4.50;99.90;;;;;;5096122;28;20409;-65
2022/12/15 12:02:43;;;;;;;11.52;6.80;;;4.90;99.90;;;;;;5079391;28;20040;-65
2022/12/15 12:05:25;;;;;;;11.18;6.82;;;5.30;99.90;;;;;;5096291;28;20089;-65
2022/12/15 12:08:15;;;;;;;11.97;6.73;;;5.60;99.90;;;;;;5130359;27;20410;-65
2022/12/15 12:11:17;;;;;;;9.82;7.10;;;6.80;99.90;;;;;;5078976;28;20061;-66
2022/12/15 12:13:57;;;;;;;10.82;6.65;;;7.70;99.90;;;;;;5095674;28;20063;-66
2022/12/15 12:16:39;;;;;;;9.63;6.18;;;6.70;99.90;;;;;;5095896;28;20565;-65
2022/12/15 12:19:10;;;;;;;12.80;7.38;;;6.40;99.90;;;;;;5130228;27;20374;-66
2022/12/15 12:21:47;;;;;;;11.68;7.07;;;6.30;99.90;;;;;;5129631;27;20070;-65
2022/12/15 12:24:37;;;;;;;10.13;6.72;;;6.50;99.90;;;;;;5095576;28;20040;-66
2022/12/15 12:27:08;;;;;;;9.82;7.18;;;7.30;99.90;;;;;;5079037;28;20553;-66
2022/12/15 12:29:40;;;;;;;10.65;7.25;;;7.60;99.90;;;;;;5095748;28;20524;-66
2022/12/15 12:32:50;;;;;;;9.85;6.85;;;7.80;99.90;;;;;;5078572;28;20394;-65
2022/12/15 12:35:43;;;;;;;10.27;6.35;;;8.20;99.90;;;;;;5034532;28;20056;-66
2022/12/15 12:38:10;;;;;;;;;;;9.40;99.90;;;;;;5034495;28;20049;-66
2022/12/15 12:40:54;;;;;;;9.70;6.18;;;9.30;99.90;;;;;;5033961;28;19921;-66
2022/12/15 12:43:37;;;;;;;9.20;6.50;;;8.60;99.90;;;;;;5034242;28;20053;-66
2022/12/15 12:46:54;;;;;;;11.63;6.03;;;9.50;99.90;;;;;;5017474;28;20055;-65
2022/12/15 12:49:43;;;;;;;9.75;6.05;;;11.50;99.90;;;;;;4991149;28;20545;-66
2022/12/15 12:52:25;;;;;;;9.93;5.80;;;13.00;99.90;;;;;;4959165;28;20714;-66
2022/12/15 12:54:57;;;;;;;9.23;5.70;;;13.70;99.90;;;;;;4975142;28;20046;-66
2022/12/15 12:57:37;;;;;;;10.13;5.75;;;13.70;99.90;;;;;;4974305;28;20527;-66
2022/12/15 13:00:24;;;;;;;11.00;5.40;;;13.80;99.90;;;;;;4968242;28;20641;-66
2022/12/15 13:03:13;;;;;;;9.43;6.20;;;12.90;99.50;;;;;;4973955;28;20046;-66
2022/12/15 13:05:40;;;;;;;9.43;6.10;;;12.30;97.90;;;;;;4990573;28;20431;-66
2022/12/15 13:08:06;;;;;;;9.45;5.97;;;11.20;99.90;;;;;;4975016;28;20121;-65
2022/12/15 13:10:37;;;;;;;9.40;6.50;;;10.50;99.90;;;;;;5026717;28;20141;-66
2022/12/15 13:13:17;;;;;;;11.07;6.38;;;9.60;99.90;;;;;;5030414;28;20083;-65
2022/12/15 13:15:48;;;;;;;12.05;6.72;;;9.10;99.90;;;;;;4997153;28;20439;-66
2022/12/15 13:18:23;;;;;;;12.00;6.47;;;8.90;99.90;;;;;;5030204;28;20033;-66
2022/12/15 13:20:54;;;;;;;11.63;6.45;;;8.40;99.90;;;;;;5013354;28;20045;-66
2022/12/15 13:23:22;;;;;;;14.50;7.72;;;8.30;99.90;;;;;;5013706;28;20180;-66
2022/12/15 13:25:57;;;;;;;9.15;6.43;;;7.70;99.90;;;;;;5089118;27;20048;-66
2022/12/15 13:28:34;;;;;;;12.70;7.35;;;7.80;99.90;;;;;;5094836;28;20394;-66
2022/12/15 13:31:15;;;;;;;13.55;6.65;;;8.20;99.90;;;;;;5094492;28;20417;-66
2022/12/15 13:33:49;;;;;;;13.70;7.63;;;7.70;99.90;;;;;;5094178;28;20051;-65
2022/12/15 13:36:40;;;;;;;11.50;7.30;;;7.00;99.90;;;;;;5094252;28;20050;-65
2022/12/15 13:39:11;;;;;;;11.13;6.82;;;6.30;99.90;;;;;;5094161;28;20156;-65
2022/12/15 13:41:56;;;;;;;11.05;6.82;;;6.00;99.90;;;;;;5093967;28;20039;-65
2022/12/15 13:44:45;;;;;;;11.90;7.18;;;5.80;99.90;;;;;;5128498;27;20078;-66
2022/12/15 13:47:27;;;;;;;14.07;7.45;;;5.40;99.90;;;;;;5093965;28;20039;-66
2022/12/15 13:50:02;;;;;;;11.27;7.20;;;5.10;99.90;;;;;;5128137;27;20405;-66
2022/12/15 13:52:50;;;;;;;12.35;8.13;;;4.70;99.90;;;;;;5094002;28;20039;-65
2022/12/15 13:55:23;;;;;;;12.13;7.30;;;4.40;99.90;;;;;;5094053;28;20114;-66
2022/12/15 13:58:13;;;;;;;11.60;7.82;;;4.20;99.90;;;;;;5093956;28;20043;-65
2022/12/15 14:00:48;;;;;;;14.23;7.97;;;3.90;99.90;;;;;;5093718;28;20439;-66
2022/12/15 14:03:14;;;;;;;14.52;8.07;;;3.60;99.90;;;;;;5094108;28;20118;-66
2022/12/15 14:05:45;;;;;;;14.57;8.10;;;3.40;99.90;;;;;;5093668;28;20110;-66
2022/12/15 14:08:14;;;;;;;10.85;7.80;;;3.30;99.90;;;;;;5093469;28;20051;-66
2022/12/15 14:10:50;;;;;;;13.77;8.00;;;3.20;99.90;;;;;;5092744;28;20036;-66
2022/12/15 14:13:28;;;;;;;12.10;8.13;;;3.10;99.90;;;;;;5093425;28;20048;-66
2022/12/15 14:16:19;;;;;;;11.70;8.40;;;3.10;99.90;;;;;;5127655;27;20093;-66
2022/12/15 14:19:13;;;;;;;14.68;8.70;;;3.00;99.90;;;;;;5127761;27;20893;-66
2022/12/15 14:21:38;;;;;;;16.73;8.80;;;2.90;99.90;;;;;;5093572;28;20155;-66
2022/12/15 14:24:25;;;;;;;14.32;9.32;;;2.80;99.90;;;;;;5093003;28;20031;-66
2022/12/15 14:26:50;;;;;;;16.83;9.02;;;2.70;99.90;;;;;;5127265;27;20028;-65
2022/12/15 14:29:17;;;;;;;14.35;9.30;;;2.60;99.90;;;;;;5127305;27;20032;-66
2022/12/15 14:31:52;;;;;;;15.40;9.95;;;2.60;99.90;;;;;;5127426;27;20044;-66
2022/12/15 14:34:40;;;;;;;14.90;9.07;;;2.50;99.90;;;;;;5093116;28;20047;-65
2022/12/15 14:37:10;;;;;;;12.70;8.45;;;2.50;99.90;;;;;;5076148;28;20077;-66
2022/12/15 14:39:42;;;;;;;15.70;9.25;;;2.40;99.90;;;;;;5093106;28;20104;-65
2022/12/15 14:42:26;;;;;;;16.75;9.02;;;2.40;99.90;;;;;;5093035;28;21158;-65
2022/12/15 14:44:52;;;;;;;15.00;8.82;;;2.30;99.90;;;;;;5092793;28;20035;-66
2022/12/15 14:47:20;;;;;;;16.77;8.95;;;2.30;99.90;;;;;;5078879;28;20487;-66
2022/12/15 14:49:47;;;;;;;15.55;8.73;;;2.20;99.90;;;;;;5055472;28;20052;-66
2022/12/15 14:52:27;;;;;;;14.90;9.02;;;2.20;99.90;;;;;;5072445;28;20044;-66
2022/12/15 14:54:57;;;;;;;17.02;8.90;;;2.10;99.90;;;;;;5055815;28;20416;-65
2022/12/15 14:57:44;;;;;;;16.20;9.48;;;2.10;99.90;;;;;;5072952;28;20044;-65
2022/12/15 15:00:32;;;;;;;13.43;8.18;;;2.00;99.90;;;;;;5106374;28;20467;-66
2022/12/15 15:03:37;;;;;;;12.35;9.00;;;2.00;99.90;;;;;;5072629;28;20036;-66
2022/12/15 15:06:17;;;;;;;12.85;8.77;;;1.90;99.90;;;;;;5053890;28;20043;-65
2022/12/15 15:08:49;;;;;;;16.52;9.60;;;1.90;99.90;;;;;;5072861;28;20043;-65
2022/12/15 15:11:28;;;;;;;13.63;9.10;;;1.80;99.90;;;;;;5072325;28;20035;-66
2022/12/15 15:14:27;;;;;;;12.45;9.02;;;1.80;99.90;;;;;;5106146;28;20055;-66
2022/12/15 15:17:01;;;;;;;14.52;9.32;;;1.70;99.90;;;;;;5011712;28;20053;-65
2022/12/15 15:19:27;;;;;;;15.05;9.00;;;1.60;99.90;;;;;;4995164;28;20052;-66
2022/12/15 15:21:52;;;;;;;13.48;9.85;;;1.60;99.90;;;;;;5014964;28;20053;-66
2022/12/15 15:24:23;;;;;;;19.10;10.57;;;1.50;99.90;;;;;;5015481;28;20107;-66
2022/12/15 15:26:49;;;;;;;15.30;10.40;;;1.50;99.90;;;;;;5015714;28;20045;-66
2022/12/15 15:29:38;;;;;;;15.48;9.88;;;1.50;99.90;;;;;;5015426;28;20041;-66